sensor_id;sensor_type;location;lat;lon;timestamp;P1;durP1;ratioP1;P2;durP2;ratioP2
82940;SDS011;72715;48.396;-4.472;2024-01-15T00:02:08;27.00;;;17.20;;
82940;SDS011;72715;48.396;-4.472;2024-01-15T00:04:37;26.05;;;18.30;;
82940;SDS011;72715;48.396;-4.472;2024-01-15T00:07:03;32.97;;;21.90;;
82940;SDS011;72715;48.396;-4.472;2024-01-15T00:09:29;26.40;;;17.10;;
82940;SDS011;72715;48.396;-4.472;2024-01-15T00:11:54;28.90;;;17.65;;
82940;SDS011;72715;48.396;-4.472;2024-01-15T00:14:20;34.53;;;21.30;;
82940;SDS011;72715;48.396;-4.472;2024-01-15T00:16:45;34.00;;;22.42;;
82940;SDS011;72715;48.396;-4.472;2024-01-15T00:19:11;27.83;;;16.15;;
82940;SDS011;72715;48.396;-4.472;2024-01-15T00:21:37;39.03;;;20.52;;
82940;SDS011;72715;48.396;-4.472;2024-01-15T00:24:02;29.05;;;18.17;;
82940;SDS011;72715;48.396;-4.472;2024-01-15T00:26:28;23.67;;;16.42;;
82940;SDS011;72715;48.396;-4.472;2024-01-15T00:28:53;28.45;;;13.60;;
82940;SDS011;72715;48.396;-4.472;2024-01-15T00:31:19;19.30;;;14.10;;
82940;SDS011;72715;48.396;-4.472;2024-01-15T00:33:44;24.77;;;13.30;;
82940;SDS011;72715;48.396;-4.472;2024-01-15T00:36:09;21.73;;;15.55;;
82940;SDS011;72715;48.396;-4.472;2024-01-15T00:38:35;23.98;;;16.15;;
82940;SDS011;72715;48.396;-4.472;2024-01-15T00:41:00;19.75;;;13.07;;
82940;SDS011;72715;48.396;-4.472;2024-01-15T00:43:26;15.57;;;12.70;;
82940;SDS011;72715;48.396;-4.472;2024-01-15T00:45:51;21.85;;;12.55;;
82940;SDS011;72715;48.396;-4.472;2024-01-15T00:48:16;25.00;;;14.05;;
82940;SDS011;72715;48.396;-4.472;2024-01-15T00:50:42;20.15;;;13.43;;
82940;SDS011;72715;48.396;-4.472;2024-01-15T00:53:07;24.40;;;12.75;;
82940;SDS011;72715;48.396;-4.472;2024-01-15T00:55:32;19.95;;;13.63;;
82940;SDS011;72715;48.396;-4.472;2024-01-15T00:57:58;16.48;;;13.45;;
82940;SDS011;72715;48.396;-4.472;2024-01-15T01:00:23;18.27;;;14.05;;
82940;SDS011;72715;48.396;-4.472;2024-01-15T01:02:48;20.10;;;14.55;;
82940;SDS011;72715;48.396;-4.472;2024-01-15T01:05:14;19.65;;;13.90;;
82940;SDS011;72715;48.396;-4.472;2024-01-15T01:07:39;20.48;;;13.07;;
82940;SDS011;72715;48.396;-4.472;2024-01-15T01:10:05;22.75;;;12.80;;
82940;SDS011;72715;48.396;-4.472;2024-01-15T01:12:30;18.20;;;14.75;;
82940;SDS011;72715;48.396;-4.472;2024-01-15T01:14:56;19.73;;;11.38;;
82940;SDS011;72715;48.396;-4.472;2024-01-15T01:17:21;26.08;;;14.27;;
82940;SDS011;72715;48.396;-4.472;2024-01-15T01:19:47;16.63;;;13.02;;
82940;SDS011;72715;48.396;-4.472;2024-01-15T01:22:12;14.63;;;11.00;;
82940;SDS011;72715;48.396;-4.472;2024-01-15T01:24:38;20.65;;;13.68;;
82940;SDS011;72715;48.396;-4.472;2024-01-15T01:27:03;17.02;;;10.85;;
82940;SDS011;72715;48.396;-4.472;2024-01-15T01:29:29;16.55;;;11.60;;
82940;SDS011;72715;48.396;-4.472;2024-01-15T01:31:54;26.83;;;18.17;;
82940;SDS011;72715;48.396;-4.472;2024-01-15T01:34:21;19.25;;;11.65;;
82940;SDS011;72715;48.396;-4.472;2024-01-15T01:36:46;18.85;;;15.15;;
82940;SDS011;72715;48.396;-4.472;2024-01-15T01:39:12;24.23;;;14.30;;
82940;SDS011;72715;48.396;-4.472;2024-01-15T01:41:38;13.55;;;11.15;;
82940;SDS011;72715;48.396;-4.472;2024-01-15T01:44:03;17.42;;;11.40;;
82940;SDS011;72715;48.396;-4.472;2024-01-15T01:46:28;19.75;;;12.88;;
82940;SDS011;72715;48.396;-4.472;2024-01-15T01:48:54;13.52;;;10.68;;
82940;SDS011;72715;48.396;-4.472;2024-01-15T01:51:20;16.38;;;12.45;;
82940;SDS011;72715;48.396;-4.472;2024-01-15T01:53:47;19.48;;;11.65;;
82940;SDS011;72715;48.396;-4.472;2024-01-15T01:56:12;19.38;;;12.35;;
82940;SDS011;72715;48.396;-4.472;2024-01-15T01:58:38;14.68;;;11.45;;
82940;SDS011;72715;48.396;-4.472;2024-01-15T02:01:04;16.60;;;11.60;;
82940;SDS011;72715;48.396;-4.472;2024-01-15T02:03:30;17.00;;;11.88;;
82940;SDS011;72715;48.396;-4.472;2024-01-15T02:05:55;15.98;;;11.48;;
82940;SDS011;72715;48.396;-4.472;2024-01-15T02:08:21;17.67;;;12.00;;
82940;SDS011;72715;48.396;-4.472;2024-01-15T02:10:47;18.92;;;11.48;;
82940;SDS011;72715;48.396;-4.472;2024-01-15T02:13:12;14.80;;;11.40;;
82940;SDS011;72715;48.396;-4.472;2024-01-15T02:15:37;20.65;;;12.82;;
82940;SDS011;72715;48.396;-4.472;2024-01-15T02:18:03;17.48;;;11.95;;
82940;SDS011;72715;48.396;-4.472;2024-01-15T02:20:30;17.05;;;9.90;;
82940;SDS011;72715;48.396;-4.472;2024-01-15T02:23:09;20.13;;;12.85;;
82940;SDS011;72715;48.396;-4.472;2024-01-15T02:25:37;17.15;;;10.70;;
82940;SDS011;72715;48.396;-4.472;2024-01-15T02:28:06;17.52;;;10.93;;
82940;SDS011;72715;48.396;-4.472;2024-01-15T02:30:33;19.70;;;13.45;;
82940;SDS011;72715;48.396;-4.472;2024-01-15T02:33:01;18.75;;;13.02;;
82940;SDS011;72715;48.396;-4.472;2024-01-15T02:35:26;23.08;;;12.82;;
82940;SDS011;72715;48.396;-4.472;2024-01-15T02:37:51;16.13;;;9.07;;
82940;SDS011;72715;48.396;-4.472;2024-01-15T02:40:17;18.95;;;11.73;;
82940;SDS011;72715;48.396;-4.472;2024-01-15T02:42:42;14.20;;;9.18;;
82940;SDS011;72715;48.396;-4.472;2024-01-15T02:45:08;15.15;;;11.32;;
82940;SDS011;72715;48.396;-4.472;2024-01-15T02:47:33;17.35;;;12.60;;
82940;SDS011;72715;48.396;-4.472;2024-01-15T02:49:59;15.98;;;11.25;;
82940;SDS011;72715;48.396;-4.472;2024-01-15T02:52:24;19.25;;;12.30;;
82940;SDS011;72715;48.396;-4.472;2024-01-15T02:54:49;17.92;;;10.85;;
82940;SDS011;72715;48.396;-4.472;2024-01-15T02:57:15;18.85;;;13.77;;
82940;SDS011;72715;48.396;-4.472;2024-01-15T02:59:40;14.65;;;9.48;;
82940;SDS011;72715;48.396;-4.472;2024-01-15T03:02:06;13.15;;;8.90;;
82940;SDS011;72715;48.396;-4.472;2024-01-15T03:04:31;13.07;;;8.63;;
82940;SDS011;72715;48.396;-4.472;2024-01-15T03:06:56;15.95;;;10.02;;
82940;SDS011;72715;48.396;-4.472;2024-01-15T03:09:22;12.13;;;10.15;;
82940;SDS011;72715;48.396;-4.472;2024-01-15T03:11:47;16.05;;;10.35;;
82940;SDS011;72715;48.396;-4.472;2024-01-15T03:14:13;14.43;;;10.20;;
82940;SDS011;72715;48.396;-4.472;2024-01-15T03:16:39;14.70;;;9.98;;
82940;SDS011;72715;48.396;-4.472;2024-01-15T03:19:04;22.35;;;12.90;;
82940;SDS011;72715;48.396;-4.472;2024-01-15T03:21:29;14.15;;;10.52;;
82940;SDS011;72715;48.396;-4.472;2024-01-15T03:23:55;12.25;;;9.13;;
82940;SDS011;72715;48.396;-4.472;2024-01-15T03:26:20;14.95;;;10.85;;
82940;SDS011;72715;48.396;-4.472;2024-01-15T03:28:45;14.85;;;11.70;;
82940;SDS011;72715;48.396;-4.472;2024-01-15T03:31:11;13.02;;;10.15;;
82940;SDS011;72715;48.396;-4.472;2024-01-15T03:33:36;13.88;;;8.63;;
82940;SDS011;72715;48.396;-4.472;2024-01-15T03:36:02;14.65;;;9.15;;
82940;SDS011;72715;48.396;-4.472;2024-01-15T03:38:28;19.27;;;10.85;;
82940;SDS011;72715;48.396;-4.472;2024-01-15T03:40:53;15.05;;;10.45;;
82940;SDS011;72715;48.396;-4.472;2024-01-15T03:43:19;19.52;;;13.15;;
82940;SDS011;72715;48.396;-4.472;2024-01-15T03:45:44;20.92;;;13.73;;
82940;SDS011;72715;48.396;-4.472;2024-01-15T03:48:10;17.15;;;12.63;;
82940;SDS011;72715;48.396;-4.472;2024-01-15T03:50:36;15.05;;;9.88;;
82940;SDS011;72715;48.396;-4.472;2024-01-15T03:53:01;18.25;;;11.88;;
82940;SDS011;72715;48.396;-4.472;2024-01-15T03:55:27;21.25;;;12.80;;
82940;SDS011;72715;48.396;-4.472;2024-01-15T03:57:52;15.80;;;11.38;;
82940;SDS011;72715;48.396;-4.472;2024-01-15T04:00:17;14.13;;;12.63;;
82940;SDS011;72715;48.396;-4.472;2024-01-15T04:02:43;19.80;;;13.13;;
82940;SDS011;72715;48.396;-4.472;2024-01-15T04:05:09;15.55;;;12.90;;
82940;SDS011;72715;48.396;-4.472;2024-01-15T04:07:35;23.55;;;12.38;;
82940;SDS011;72715;48.396;-4.472;2024-01-15T04:10:00;19.70;;;13.82;;
82940;SDS011;72715;48.396;-4.472;2024-01-15T04:12:25;38.63;;;13.35;;
82940;SDS011;72715;48.396;-4.472;2024-01-15T04:14:51;18.90;;;14.55;;
82940;SDS011;72715;48.396;-4.472;2024-01-15T04:17:16;19.05;;;12.55;;
82940;SDS011;72715;48.396;-4.472;2024-01-15T04:19:43;13.45;;;8.48;;
82940;SDS011;72715;48.396;-4.472;2024-01-15T04:22:09;16.25;;;11.38;;
82940;SDS011;72715;48.396;-4.472;2024-01-15T04:24:34;17.35;;;11.68;;
82940;SDS011;72715;48.396;-4.472;2024-01-15T04:27:00;15.98;;;9.57;;
82940;SDS011;72715;48.396;-4.472;2024-01-15T04:29:25;14.18;;;10.20;;
82940;SDS011;72715;48.396;-4.472;2024-01-15T04:31:51;18.13;;;12.10;;
82940;SDS011;72715;48.396;-4.472;2024-01-15T04:34:17;19.40;;;10.77;;
82940;SDS011;72715;48.396;-4.472;2024-01-15T04:36:43;27.90;;;11.70;;
82940;SDS011;72715;48.396;-4.472;2024-01-15T04:39:08;19.48;;;14.77;;
82940;SDS011;72715;48.396;-4.472;2024-01-15T04:41:34;18.27;;;12.70;;
82940;SDS011;72715;48.396;-4.472;2024-01-15T04:43:59;21.25;;;12.23;;
82940;SDS011;72715;48.396;-4.472;2024-01-15T04:46:26;15.27;;;10.30;;
82940;SDS011;72715;48.396;-4.472;2024-01-15T04:48:51;14.43;;;10.07;;
82940;SDS011;72715;48.396;-4.472;2024-01-15T04:51:17;21.83;;;14.07;;
82940;SDS011;72715;48.396;-4.472;2024-01-15T04:53:42;21.30;;;12.45;;
82940;SDS011;72715;48.396;-4.472;2024-01-15T04:56:08;17.25;;;10.07;;
82940;SDS011;72715;48.396;-4.472;2024-01-15T04:58:33;14.55;;;9.50;;
82940;SDS011;72715;48.396;-4.472;2024-01-15T05:00:58;16.92;;;11.65;;
82940;SDS011;72715;48.396;-4.472;2024-01-15T05:03:24;16.88;;;11.35;;
82940;SDS011;72715;48.396;-4.472;2024-01-15T05:05:49;13.73;;;9.57;;
82940;SDS011;72715;48.396;-4.472;2024-01-15T05:08:14;17.73;;;10.77;;
82940;SDS011;72715;48.396;-4.472;2024-01-15T05:10:40;13.38;;;10.50;;
82940;SDS011;72715;48.396;-4.472;2024-01-15T05:13:05;15.88;;;11.50;;
82940;SDS011;72715;48.396;-4.472;2024-01-15T05:15:30;13.80;;;10.38;;
82940;SDS011;72715;48.396;-4.472;2024-01-15T05:17:56;11.52;;;8.38;;
82940;SDS011;72715;48.396;-4.472;2024-01-15T05:20:21;13.90;;;10.02;;
82940;SDS011;72715;48.396;-4.472;2024-01-15T05:22:47;14.68;;;9.00;;
82940;SDS011;72715;48.396;-4.472;2024-01-15T05:25:12;12.50;;;8.68;;
82940;SDS011;72715;48.396;-4.472;2024-01-15T05:27:37;13.35;;;8.57;;
82940;SDS011;72715;48.396;-4.472;2024-01-15T05:30:03;13.50;;;9.40;;
82940;SDS011;72715;48.396;-4.472;2024-01-15T05:32:29;13.32;;;9.50;;
82940;SDS011;72715;48.396;-4.472;2024-01-15T05:34:54;16.40;;;9.68;;
82940;SDS011;72715;48.396;-4.472;2024-01-15T05:37:20;12.60;;;10.48;;
82940;SDS011;72715;48.396;-4.472;2024-01-15T05:39:45;11.68;;;7.43;;
82940;SDS011;72715;48.396;-4.472;2024-01-15T05:42:10;16.88;;;11.88;;
82940;SDS011;72715;48.396;-4.472;2024-01-15T05:44:36;21.80;;;12.07;;
82940;SDS011;72715;48.396;-4.472;2024-01-15T05:47:01;15.05;;;9.98;;
82940;SDS011;72715;48.396;-4.472;2024-01-15T05:49:27;15.10;;;11.35;;
82940;SDS011;72715;48.396;-4.472;2024-01-15T05:51:53;16.45;;;9.98;;
82940;SDS011;72715;48.396;-4.472;2024-01-15T05:54:18;17.85;;;9.85;;
82940;SDS011;72715;48.396;-4.472;2024-01-15T05:56:45;20.65;;;10.82;;
82940;SDS011;72715;48.396;-4.472;2024-01-15T05:59:10;17.92;;;9.50;;
82940;SDS011;72715;48.396;-4.472;2024-01-15T06:01:37;16.63;;;10.55;;
82940;SDS011;72715;48.396;-4.472;2024-01-15T06:04:02;14.55;;;9.10;;
82940;SDS011;72715;48.396;-4.472;2024-01-15T06:06:28;16.50;;;10.88;;
82940;SDS011;72715;48.396;-4.472;2024-01-15T06:08:53;16.90;;;9.95;;
82940;SDS011;72715;48.396;-4.472;2024-01-15T06:11:19;17.15;;;11.75;;
82940;SDS011;72715;48.396;-4.472;2024-01-15T06:13:44;14.02;;;9.25;;
82940;SDS011;72715;48.396;-4.472;2024-01-15T06:16:16;25.38;;;11.05;;
82940;SDS011;72715;48.396;-4.472;2024-01-15T06:18:41;12.23;;;7.75;;
82940;SDS011;72715;48.396;-4.472;2024-01-15T06:21:07;15.13;;;9.80;;
82940;SDS011;72715;48.396;-4.472;2024-01-15T06:23:35;19.17;;;10.27;;
82940;SDS011;72715;48.396;-4.472;2024-01-15T06:26:01;15.68;;;10.30;;
82940;SDS011;72715;48.396;-4.472;2024-01-15T06:28:28;16.77;;;11.18;;
82940;SDS011;72715;48.396;-4.472;2024-01-15T06:30:54;15.85;;;10.00;;
82940;SDS011;72715;48.396;-4.472;2024-01-15T06:33:19;12.35;;;8.93;;
82940;SDS011;72715;48.396;-4.472;2024-01-15T06:35:44;12.77;;;9.57;;
82940;SDS011;72715;48.396;-4.472;2024-01-15T06:38:10;19.40;;;11.05;;
82940;SDS011;72715;48.396;-4.472;2024-01-15T06:40:35;14.77;;;10.27;;
82940;SDS011;72715;48.396;-4.472;2024-01-15T06:43:01;14.77;;;10.50;;
82940;SDS011;72715;48.396;-4.472;2024-01-15T06:45:26;14.50;;;9.70;;
82940;SDS011;72715;48.396;-4.472;2024-01-15T06:47:51;15.95;;;11.90;;
82940;SDS011;72715;48.396;-4.472;2024-01-15T06:50:17;23.40;;;10.82;;
82940;SDS011;72715;48.396;-4.472;2024-01-15T06:52:42;15.43;;;9.32;;
82940;SDS011;72715;48.396;-4.472;2024-01-15T06:55:08;23.15;;;8.18;;
82940;SDS011;72715;48.396;-4.472;2024-01-15T06:57:33;15.13;;;10.73;;
82940;SDS011;72715;48.396;-4.472;2024-01-15T06:59:58;16.25;;;8.13;;
82940;SDS011;72715;48.396;-4.472;2024-01-15T07:02:24;15.32;;;8.82;;
82940;SDS011;72715;48.396;-4.472;2024-01-15T07:04:49;13.85;;;8.48;;
82940;SDS011;72715;48.396;-4.472;2024-01-15T07:07:15;17.13;;;10.30;;
82940;SDS011;72715;48.396;-4.472;2024-01-15T07:09:40;30.08;;;11.57;;
82940;SDS011;72715;48.396;-4.472;2024-01-15T07:12:06;16.27;;;8.38;;
82940;SDS011;72715;48.396;-4.472;2024-01-15T07:14:31;14.90;;;9.35;;
82940;SDS011;72715;48.396;-4.472;2024-01-15T07:16:56;12.45;;;8.65;;
82940;SDS011;72715;48.396;-4.472;2024-01-15T07:19:22;13.60;;;7.88;;
82940;SDS011;72715;48.396;-4.472;2024-01-15T07:21:47;11.82;;;7.68;;
82940;SDS011;72715;48.396;-4.472;2024-01-15T07:24:12;12.07;;;7.80;;
82940;SDS011;72715;48.396;-4.472;2024-01-15T07:26:38;9.63;;;7.65;;
82940;SDS011;72715;48.396;-4.472;2024-01-15T07:29:03;12.05;;;7.25;;
82940;SDS011;72715;48.396;-4.472;2024-01-15T07:31:29;10.65;;;5.57;;
82940;SDS011;72715;48.396;-4.472;2024-01-15T07:33:54;10.80;;;5.57;;
82940;SDS011;72715;48.396;-4.472;2024-01-15T07:36:20;6.25;;;5.25;;
82940;SDS011;72715;48.396;-4.472;2024-01-15T07:38:45;6.28;;;4.25;;
82940;SDS011;72715;48.396;-4.472;2024-01-15T07:41:12;5.13;;;3.70;;
82940;SDS011;72715;48.396;-4.472;2024-01-15T07:43:38;6.90;;;5.03;;
82940;SDS011;72715;48.396;-4.472;2024-01-15T07:46:04;5.45;;;2.58;;
82940;SDS011;72715;48.396;-4.472;2024-01-15T07:48:29;3.67;;;3.30;;
82940;SDS011;72715;48.396;-4.472;2024-01-15T07:50:54;6.50;;;4.40;;
82940;SDS011;72715;48.396;-4.472;2024-01-15T07:53:20;15.73;;;3.25;;
82940;SDS011;72715;48.396;-4.472;2024-01-15T07:55:45;10.18;;;4.25;;
82940;SDS011;72715;48.396;-4.472;2024-01-15T07:58:11;8.90;;;5.13;;
82940;SDS011;72715;48.396;-4.472;2024-01-15T08:00:36;5.55;;;3.15;;
82940;SDS011;72715;48.396;-4.472;2024-01-15T08:03:02;6.25;;;3.17;;
82940;SDS011;72715;48.396;-4.472;2024-01-15T08:05:28;3.28;;;2.30;;
82940;SDS011;72715;48.396;-4.472;2024-01-15T08:07:53;5.38;;;3.05;;
82940;SDS011;72715;48.396;-4.472;2024-01-15T08:10:18;22.20;;;3.72;;
82940;SDS011;72715;48.396;-4.472;2024-01-15T08:12:44;20.60;;;6.15;;
82940;SDS011;72715;48.396;-4.472;2024-01-15T08:15:10;26.77;;;6.30;;
82940;SDS011;72715;48.396;-4.472;2024-01-15T08:17:35;7.75;;;2.88;;
82940;SDS011;72715;48.396;-4.472;2024-01-15T08:20:00;24.38;;;6.68;;
82940;SDS011;72715;48.396;-4.472;2024-01-15T08:22:26;28.25;;;6.00;;
82940;SDS011;72715;48.396;-4.472;2024-01-15T08:24:51;26.15;;;6.30;;
82940;SDS011;72715;48.396;-4.472;2024-01-15T08:27:20;39.15;;;7.45;;
82940;SDS011;72715;48.396;-4.472;2024-01-15T08:29:45;29.52;;;4.90;;
82940;SDS011;72715;48.396;-4.472;2024-01-15T08:32:11;8.77;;;3.63;;
82940;SDS011;72715;48.396;-4.472;2024-01-15T08:34:39;13.60;;;3.40;;
82940;SDS011;72715;48.396;-4.472;2024-01-15T08:37:05;23.98;;;4.32;;
82940;SDS011;72715;48.396;-4.472;2024-01-15T08:39:30;7.72;;;3.15;;
82940;SDS011;72715;48.396;-4.472;2024-01-15T08:41:55;5.35;;;2.20;;
82940;SDS011;72715;48.396;-4.472;2024-01-15T08:44:21;45.70;;;4.13;;
82940;SDS011;72715;48.396;-4.472;2024-01-15T08:46:46;12.45;;;2.95;;
82940;SDS011;72715;48.396;-4.472;2024-01-15T08:49:11;5.53;;;1.27;;
82940;SDS011;72715;48.396;-4.472;2024-01-15T08:51:37;1.58;;;1.20;;
82940;SDS011;72715;48.396;-4.472;2024-01-15T08:54:04;14.02;;;3.90;;
82940;SDS011;72715;48.396;-4.472;2024-01-15T08:56:29;6.82;;;2.33;;
82940;SDS011;72715;48.396;-4.472;2024-01-15T08:58:55;8.52;;;2.80;;
82940;SDS011;72715;48.396;-4.472;2024-01-15T09:01:20;3.90;;;2.25;;
82940;SDS011;72715;48.396;-4.472;2024-01-15T09:03:46;3.45;;;1.45;;
82940;SDS011;72715;48.396;-4.472;2024-01-15T09:06:13;6.47;;;1.80;;
82940;SDS011;72715;48.396;-4.472;2024-01-15T09:08:38;4.75;;;2.88;;
82940;SDS011;72715;48.396;-4.472;2024-01-15T09:11:04;8.88;;;2.63;;
82940;SDS011;72715;48.396;-4.472;2024-01-15T09:13:29;6.85;;;2.58;;
82940;SDS011;72715;48.396;-4.472;2024-01-15T09:15:55;9.13;;;1.92;;
82940;SDS011;72715;48.396;-4.472;2024-01-15T09:18:21;4.80;;;1.48;;
82940;SDS011;72715;48.396;-4.472;2024-01-15T09:20:46;11.10;;;2.85;;
82940;SDS011;72715;48.396;-4.472;2024-01-15T09:23:11;4.55;;;2.33;;
82940;SDS011;72715;48.396;-4.472;2024-01-15T09:25:37;1.50;;;1.40;;
82940;SDS011;72715;48.396;-4.472;2024-01-15T09:28:02;1.83;;;0.80;;
82940;SDS011;72715;48.396;-4.472;2024-01-15T09:30:28;0.93;;;0.80;;
82940;SDS011;72715;48.396;-4.472;2024-01-15T09:32:53;10.55;;;2.25;;
82940;SDS011;72715;48.396;-4.472;2024-01-15T09:35:19;4.75;;;2.22;;
82940;SDS011;72715;48.396;-4.472;2024-01-15T09:37:44;9.68;;;2.47;;
82940;SDS011;72715;48.396;-4.472;2024-01-15T09:40:12;7.57;;;2.10;;
82940;SDS011;72715;48.396;-4.472;2024-01-15T09:42:39;4.95;;;1.20;;
82940;SDS011;72715;48.396;-4.472;2024-01-15T09:45:06;20.83;;;2.42;;
82940;SDS011;72715;48.396;-4.472;2024-01-15T09:47:32;2.70;;;2.17;;
82940;SDS011;72715;48.396;-4.472;2024-01-15T09:49:57;1.23;;;0.80;;
82940;SDS011;72715;48.396;-4.472;2024-01-15T09:52:23;1.50;;;1.30;;
82940;SDS011;72715;48.396;-4.472;2024-01-15T09:54:49;2.33;;;1.05;;
82940;SDS011;72715;48.396;-4.472;2024-01-15T09:57:15;2.25;;;1.73;;
82940;SDS011;72715;48.396;-4.472;2024-01-15T09:59:40;5.30;;;1.65;;
82940;SDS011;72715;48.396;-4.472;2024-01-15T10:02:08;3.90;;;1.88;;
82940;SDS011;72715;48.396;-4.472;2024-01-15T10:04:33;2.95;;;1.58;;
82940;SDS011;72715;48.396;-4.472;2024-01-15T10:06:58;6.70;;;1.63;;
82940;SDS011;72715;48.396;-4.472;2024-01-15T10:09:25;5.85;;;2.13;;
82940;SDS011;72715;48.396;-4.472;2024-01-15T10:11:51;2.22;;;0.80;;
82940;SDS011;72715;48.396;-4.472;2024-01-15T10:14:17;1.55;;;1.25;;
82940;SDS011;72715;48.396;-4.472;2024-01-15T10:16:43;2.78;;;0.82;;
82940;SDS011;72715;48.396;-4.472;2024-01-15T10:19:08;4.00;;;0.98;;
82940;SDS011;72715;48.396;-4.472;2024-01-15T10:21:34;18.95;;;3.30;;
82940;SDS011;72715;48.396;-4.472;2024-01-15T10:24:00;1.65;;;0.98;;
82940;SDS011;72715;48.396;-4.472;2024-01-15T10:26:26;0.45;;;0.30;;
82940;SDS011;72715;48.396;-4.472;2024-01-15T10:28:51;1.48;;;0.98;;
82940;SDS011;72715;48.396;-4.472;2024-01-15T10:31:18;1.98;;;0.73;;
82940;SDS011;72715;48.396;-4.472;2024-01-15T10:33:44;2.83;;;1.23;;
82940;SDS011;72715;48.396;-4.472;2024-01-15T10:36:10;1.13;;;1.02;;
82940;SDS011;72715;48.396;-4.472;2024-01-15T10:38:36;7.25;;;2.15;;
82940;SDS011;72715;48.396;-4.472;2024-01-15T10:41:01;3.70;;;2.65;;
82940;SDS011;72715;48.396;-4.472;2024-01-15T10:43:27;2.80;;;1.42;;
82940;SDS011;72715;48.396;-4.472;2024-01-15T10:45:52;1.33;;;1.15;;
82940;SDS011;72715;48.396;-4.472;2024-01-15T10:48:18;2.88;;;1.02;;
82940;SDS011;72715;48.396;-4.472;2024-01-15T10:50:47;2.75;;;1.67;;
82940;SDS011;72715;48.396;-4.472;2024-01-15T10:53:14;3.33;;;1.58;;
82940;SDS011;72715;48.396;-4.472;2024-01-15T10:55:42;2.42;;;1.00;;
82940;SDS011;72715;48.396;-4.472;2024-01-15T10:58:08;3.33;;;1.08;;
82940;SDS011;72715;48.396;-4.472;2024-01-15T11:00:37;3.63;;;0.85;;
82940;SDS011;72715;48.396;-4.472;2024-01-15T11:03:04;3.83;;;1.20;;
82940;SDS011;72715;48.396;-4.472;2024-01-15T11:05:36;0.60;;;0.60;;
82940;SDS011;72715;48.396;-4.472;2024-01-15T11:08:11;2.53;;;1.23;;
82940;SDS011;72715;48.396;-4.472;2024-01-15T11:13:13;1.88;;;1.05;;
82940;SDS011;72715;48.396;-4.472;2024-01-15T11:15:58;2.47;;;1.00;;
82940;SDS011;72715;48.396;-4.472;2024-01-15T11:18:30;2.78;;;1.02;;
82940;SDS011;72715;48.396;-4.472;2024-01-15T11:23:49;1.95;;;0.95;;
82940;SDS011;72715;48.396;-4.472;2024-01-15T11:26:46;9.73;;;2.15;;
82940;SDS011;72715;48.396;-4.472;2024-01-15T11:34:21;2.67;;;1.30;;
82940;SDS011;72715;48.396;-4.472;2024-01-15T11:41:56;1.52;;;0.88;;
82940;SDS011;72715;48.396;-4.472;2024-01-15T11:44:22;2.30;;;0.80;;
82940;SDS011;72715;48.396;-4.472;2024-01-15T11:47:06;9.15;;;1.83;;
82940;SDS011;72715;48.396;-4.472;2024-01-15T11:52:27;2.15;;;0.90;;
82940;SDS011;72715;48.396;-4.472;2024-01-15T11:57:53;4.60;;;2.08;;
82940;SDS011;72715;48.396;-4.472;2024-01-15T12:00:19;3.42;;;1.67;;
82940;SDS011;72715;48.396;-4.472;2024-01-15T12:02:46;1.50;;;0.50;;
82940;SDS011;72715;48.396;-4.472;2024-01-15T12:05:17;3.97;;;0.88;;
82940;SDS011;72715;48.396;-4.472;2024-01-15T12:07:44;1.95;;;1.02;;
82940;SDS011;72715;48.396;-4.472;2024-01-15T12:10:11;2.58;;;1.10;;
82940;SDS011;72715;48.396;-4.472;2024-01-15T12:12:57;7.18;;;1.30;;
82940;SDS011;72715;48.396;-4.472;2024-01-15T12:15:27;4.20;;;1.15;;
82940;SDS011;72715;48.396;-4.472;2024-01-15T12:17:57;9.10;;;2.42;;
82940;SDS011;72715;48.396;-4.472;2024-01-15T12:20:26;7.38;;;2.38;;
82940;SDS011;72715;48.396;-4.472;2024-01-15T12:22:52;3.95;;;2.47;;
82940;SDS011;72715;48.396;-4.472;2024-01-15T12:25:18;10.50;;;3.65;;
82940;SDS011;72715;48.396;-4.472;2024-01-15T12:27:43;2.40;;;1.35;;
82940;SDS011;72715;48.396;-4.472;2024-01-15T12:30:12;1.58;;;1.35;;
82940;SDS011;72715;48.396;-4.472;2024-01-15T12:32:38;8.52;;;2.55;;
82940;SDS011;72715;48.396;-4.472;2024-01-15T12:35:05;1.85;;;1.05;;
82940;SDS011;72715;48.396;-4.472;2024-01-15T12:37:31;9.85;;;1.35;;
82940;SDS011;72715;48.396;-4.472;2024-01-15T12:39:56;7.97;;;2.22;;
82940;SDS011;72715;48.396;-4.472;2024-01-15T12:42:24;2.90;;;1.23;;
82940;SDS011;72715;48.396;-4.472;2024-01-15T12:44:49;4.22;;;0.80;;
82940;SDS011;72715;48.396;-4.472;2024-01-15T12:47:14;1.83;;;0.68;;
82940;SDS011;72715;48.396;-4.472;2024-01-15T12:49:46;2.80;;;1.58;;
82940;SDS011;72715;48.396;-4.472;2024-01-15T12:52:11;5.88;;;2.03;;
82940;SDS011;72715;48.396;-4.472;2024-01-15T12:54:37;2.67;;;0.93;;
82940;SDS011;72715;48.396;-4.472;2024-01-15T12:57:02;11.98;;;3.30;;
82940;SDS011;72715;48.396;-4.472;2024-01-15T12:59:28;12.55;;;2.22;;
82940;SDS011;72715;48.396;-4.472;2024-01-15T13:01:54;3.60;;;1.40;;
82940;SDS011;72715;48.396;-4.472;2024-01-15T13:04:23;5.43;;;1.23;;
82940;SDS011;72715;48.396;-4.472;2024-01-15T13:06:52;8.95;;;2.50;;
82940;SDS011;72715;48.396;-4.472;2024-01-15T13:09:18;18.50;;;2.78;;
82940;SDS011;72715;48.396;-4.472;2024-01-15T13:11:44;9.15;;;2.60;;
82940;SDS011;72715;48.396;-4.472;2024-01-15T13:14:10;5.60;;;1.70;;
82940;SDS011;72715;48.396;-4.472;2024-01-15T13:16:35;2.40;;;0.85;;
82940;SDS011;72715;48.396;-4.472;2024-01-15T13:19:01;4.72;;;1.20;;
82940;SDS011;72715;48.396;-4.472;2024-01-15T13:21:26;1.55;;;0.68;;
82940;SDS011;72715;48.396;-4.472;2024-01-15T13:23:51;0.70;;;0.52;;
82940;SDS011;72715;48.396;-4.472;2024-01-15T13:26:17;6.57;;;1.08;;
82940;SDS011;72715;48.396;-4.472;2024-01-15T13:28:44;1.45;;;1.35;;
82940;SDS011;72715;48.396;-4.472;2024-01-15T13:31:09;3.72;;;1.20;;
82940;SDS011;72715;48.396;-4.472;2024-01-15T13:33:34;1.02;;;0.60;;
82940;SDS011;72715;48.396;-4.472;2024-01-15T13:36:00;1.33;;;0.98;;
82940;SDS011;72715;48.396;-4.472;2024-01-15T13:38:25;4.93;;;0.90;;
82940;SDS011;72715;48.396;-4.472;2024-01-15T13:40:52;2.63;;;0.93;;
82940;SDS011;72715;48.396;-4.472;2024-01-15T13:43:20;1.60;;;1.25;;
82940;SDS011;72715;48.396;-4.472;2024-01-15T13:45:45;8.93;;;1.30;;
82940;SDS011;72715;48.396;-4.472;2024-01-15T13:48:11;2.67;;;1.70;;
82940;SDS011;72715;48.396;-4.472;2024-01-15T13:50:37;1.88;;;0.65;;
82940;SDS011;72715;48.396;-4.472;2024-01-15T13:53:03;0.65;;;0.65;;
82940;SDS011;72715;48.396;-4.472;2024-01-15T13:55:29;0.73;;;0.60;;
82940;SDS011;72715;48.396;-4.472;2024-01-15T13:57:54;2.17;;;1.10;;
82940;SDS011;72715;48.396;-4.472;2024-01-15T14:00:20;1.60;;;0.77;;
82940;SDS011;72715;48.396;-4.472;2024-01-15T14:02:45;2.13;;;1.05;;
82940;SDS011;72715;48.396;-4.472;2024-01-15T14:05:11;3.67;;;0.80;;
82940;SDS011;72715;48.396;-4.472;2024-01-15T14:07:38;3.97;;;0.90;;
82940;SDS011;72715;48.396;-4.472;2024-01-15T14:10:04;3.58;;;2.25;;
82940;SDS011;72715;48.396;-4.472;2024-01-15T14:12:30;1.50;;;1.25;;
82940;SDS011;72715;48.396;-4.472;2024-01-15T14:14:56;1.05;;;0.90;;
82940;SDS011;72715;48.396;-4.472;2024-01-15T14:17:21;2.55;;;0.77;;
82940;SDS011;72715;48.396;-4.472;2024-01-15T14:19:46;1.48;;;0.85;;
82940;SDS011;72715;48.396;-4.472;2024-01-15T14:22:12;1.77;;;0.80;;
82940;SDS011;72715;48.396;-4.472;2024-01-15T14:24:37;4.15;;;1.42;;
82940;SDS011;72715;48.396;-4.472;2024-01-15T14:27:03;0.52;;;0.52;;
82940;SDS011;72715;48.396;-4.472;2024-01-15T14:29:30;1.02;;;0.88;;
82940;SDS011;72715;48.396;-4.472;2024-01-15T14:31:55;1.95;;;0.93;;
82940;SDS011;72715;48.396;-4.472;2024-01-15T14:34:21;5.20;;;0.90;;
82940;SDS011;72715;48.396;-4.472;2024-01-15T14:36:48;3.05;;;1.00;;